Time;durP1;ratioP1;P1;durP2;ratioP2;P2;SDS_P1;SDS_P2;PMS_P1;PMS_P2;Temp;Humidity;BMP_temperature;BMP_pressure;BME280_temperature;BME280_humidity;BME280_pressure;Samples;Min_cycle;Max_cycle;Signal;HPM_P1;HPM_P2
2022/08/15 00:00:52;;;;;;;11.17;9.80;;;;;;;22.94;59.60;100147.06;5066790;28;20294;-84
2022/08/15 00:03:31;;;;;;;11.95;9.45;;;;;;;22.89;58.63;100156.34;5067981;28;20121;-83
2022/08/15 00:06:03;;;;;;;10.93;9.07;;;;;;;22.84;58.80;100156.59;5066494;28;20031;-83
2022/08/15 00:08:32;;;;;;;16.25;9.75;;;;;;;22.75;60.91;100148.63;5068648;28;20170;-84
2022/08/15 00:11:08;;;;;;;12.00;8.57;;;;;;;22.74;59.38;100152.50;5070984;28;20522;-84
2022/08/15 00:13:34;;;;;;;20.20;9.98;;;;;;;22.52;61.17;100149.28;5071364;28;20161;-83
2022/08/15 00:15:59;;;;;;;11.93;10.10;;;;;;;22.59;60.70;100151.38;5071713;28;20024;-84
2022/08/15 00:18:27;;;;;;;12.77;9.77;;;;;;;22.60;60.16;100144.78;5070840;28;20024;-84
2022/08/15 00:20:54;;;;;;;13.02;9.52;;;;;;;22.57;60.07;100150.94;5070761;28;20667;-83
2022/08/15 00:23:22;;;;;;;14.85;10.02;;;;;;;22.55;60.13;100150.50;5069913;28;20484;-83
2022/08/15 00:25:50;;;;;;;16.38;9.52;;;;;;;22.57;60.75;100150.94;5071171;28;20396;-83
2022/08/15 00:28:16;;;;;;;11.85;10.20;;;;;;;22.53;60.96;100158.28;5069831;28;20044;-84
2022/08/15 00:30:44;;;;;;;10.53;9.43;;;;;;;22.52;60.90;100168.41;5070413;28;20040;-83
2022/08/15 00:33:10;;;;;;;14.93;9.77;;;;;;;22.45;61.14;100157.34;5071176;28;20361;-84
2022/08/15 00:35:36;;;;;;;11.38;9.73;;;;;;;22.35;61.28;100152.38;5071496;28;20166;-83
2022/08/15 00:38:16;;;;;;;10.38;9.32;;;;;;;22.36;61.79;100153.97;5071097;28;20035;-83
2022/08/15 00:43:32;;;;;;;14.97;9.90;;;;;;;22.26;61.89;100152.56;5071456;28;20274;-83
2022/08/15 00:45:59;;;;;;;14.48;9.88;;;;;;;22.20;62.10;100141.13;5071298;28;20055;-83
2022/08/15 00:48:43;;;;;;;11.65;9.77;;;;;;;22.23;62.61;100151.34;5071246;28;20028;-83
2022/08/15 00:51:20;;;;;;;11.23;9.25;;;;;;;22.24;62.08;100146.66;5070178;28;20028;-83
2022/08/15 00:53:53;;;;;;;10.82;9.70;;;;;;;22.22;62.13;100149.75;5071071;28;20099;-83
2022/08/15 00:56:20;;;;;;;15.77;9.90;;;;;;;22.14;63.25;100148.00;5060389;28;20448;-84
2022/08/15 00:58:46;;;;;;;14.43;9.57;;;;;;;22.08;62.68;100142.03;5015571;28;1039921;-83
2022/08/15 01:01:14;;;;;;;11.27;9.93;;;;;;;22.08;63.03;100152.16;5051898;28;20456;-84
2022/08/15 01:03:44;;;;;;;12.98;9.98;;;;;;;22.05;63.51;100150.91;5072086;28;20043;-83
2022/08/15 01:06:10;;;;;;;14.00;10.43;;;;;;;22.08;63.02;100149.44;5071690;28;20104;-84
2022/08/15 01:08:39;;;;;;;15.00;10.07;;;;;;;22.07;62.30;100154.06;5071767;28;20024;-83
2022/08/15 01:11:20;;;;;;;11.60;10.27;;;;;;;22.09;61.69;100156.47;5053141;28;20505;-83
2022/08/15 01:13:47;;;;;;;13.13;10.40;;;;;;;22.02;62.72;100143.41;5070742;28;20043;-83
2022/08/15 01:16:14;;;;;;;15.05;10.27;;;;;;;22.02;62.18;100140.69;5072843;28;20020;-83
2022/08/15 01:18:40;;;;;;;16.73;10.35;;;;;;;22.01;61.63;100149.25;5071520;28;20060;-83
2022/08/15 01:21:20;;;;;;;12.17;9.47;;;;;;;21.97;60.72;100145.63;5069872;28;20033;-84
2022/08/15 01:24:00;;;;;;;12.03;10.13;;;;;;;21.93;60.55;100146.31;5070571;28;20337;-83
2022/08/15 01:26:26;;;;;;;11.73;9.02;;;;;;;21.92;60.60;100141.25;5051918;28;20113;-84
2022/08/15 01:28:53;;;;;;;11.18;9.00;;;;;;;21.87;60.20;100147.75;5051498;28;20115;-83
2022/08/15 01:31:20;;;;;;;9.60;8.60;;;;;;;21.83;60.26;100146.06;5050146;28;20029;-83
2022/08/15 01:33:50;;;;;;;12.52;7.78;;;;;;;21.85;59.38;100147.31;5069646;28;20365;-83
2022/08/15 01:36:18;;;;;;;9.25;7.72;;;;;;;21.78;59.21;100138.94;5071483;28;20025;-83
2022/08/15 01:38:51;;;;;;;13.98;7.78;;;;;;;21.73;58.47;100133.72;5070983;28;20059;-83
2022/08/15 01:42:13;;;;;;;9.82;6.75;;;;;;;21.68;58.05;100140.25;5070370;28;20025;-83
2022/08/15 01:44:43;;;;;;;9.63;6.32;;;;;;;21.65;57.45;100131.97;4989129;28;20490;-83
2022/08/15 01:47:28;;;;;;;7.77;5.20;;;;;;;21.58;56.58;100146.97;4989459;28;20030;-83
2022/08/15 01:50:14;;;;;;;6.20;4.90;;;;;;;21.58;56.26;100151.66;5049007;28;20302;-83
2022/08/15 01:52:48;;;;;;;7.35;4.40;;;;;;;21.52;55.94;100148.38;5070233;28;20024;-84
2022/08/15 01:55:16;;;;;;;5.55;4.50;;;;;;;21.48;56.13;100144.78;5069743;28;20119;-83
2022/08/15 01:57:41;;;;;;;12.02;4.35;;;;;;;21.44;55.44;100157.50;5070824;28;20032;-83
2022/08/15 02:00:09;;;;;;;5.97;4.03;;;;;;;21.31;54.58;100141.22;5067979;28;20025;-83
2022/08/15 02:02:34;;;;;;;6.47;3.92;;;;;;;21.31;54.69;100152.13;5070665;28;20386;-83
2022/08/15 02:05:01;;;;;;;6.72;4.20;;;;;;;21.25;53.65;100148.03;5053078;28;20111;-83
2022/08/15 02:07:28;;;;;;;7.88;4.00;;;;;;;21.16;54.45;100134.56;5070896;28;20039;-83
2022/08/15 02:09:55;;;;;;;4.97;3.50;;;;;;;21.17;54.53;100149.78;5068993;28;20040;-83
2022/08/15 02:12:27;;;;;;;6.63;3.23;;;;;;;21.14;54.00;100158.63;5051009;28;20279;-83
2022/08/15 02:14:52;;;;;;;6.80;3.17;;;;;;;21.08;53.62;100148.34;5050307;28;20017;-83
2022/08/15 02:17:18;;;;;;;8.95;3.35;;;;;;;21.12;53.83;100152.75;5050376;28;20392;-83
2022/08/15 02:19:48;;;;;;;3.50;3.20;;;;;;;21.13;53.79;100153.56;5069926;28;20123;-83
2022/08/15 02:22:14;;;;;;;3.60;3.30;;;;;;;21.07;53.79;100142.13;5070650;28;20109;-83
2022/08/15 02:24:39;;;;;;;5.57;3.70;;;;;;;21.05;53.72;100149.03;5069864;28;20298;-83
2022/08/15 02:27:06;;;;;;;6.68;3.13;;;;;;;21.00;53.88;100142.69;5068755;28;20107;-83
2022/08/15 02:29:31;;;;;;;3.58;3.28;;;;;;;20.94;53.47;100144.06;5052170;28;20029;-84
2022/08/15 02:32:17;;;;;;;3.40;3.10;;;;;;;20.91;53.76;100144.75;5067941;28;20387;-84
2022/08/15 02:34:46;;;;;;;8.80;3.38;;;;;;;20.86;54.09;100155.88;5068540;28;20028;-84
2022/08/15 02:37:18;;;;;;;15.07;3.42;;;;;;;20.82;54.56;100152.25;5069960;28;20535;-83
2022/08/15 02:39:43;;;;;;;4.50;3.13;;;;;;;20.73;54.50;100145.00;5051930;28;20119;-84
2022/08/15 02:42:09;;;;;;;6.10;3.30;;;;;;;20.70;54.46;100148.41;5068494;28;20444;-84
2022/08/15 02:44:34;;;;;;;5.63;3.08;;;;;;;20.68;54.91;100152.63;5069967;28;20033;-83
2022/08/15 02:47:00;;;;;;;5.93;3.20;;;;;;;20.62;54.41;100143.91;5069930;28;20387;-83
2022/08/15 02:49:26;;;;;;;4.70;3.30;;;;;;;20.63;54.71;100153.66;5069917;28;20479;-83
2022/08/15 02:51:52;;;;;;;4.97;2.90;;;;;;;20.58;55.01;100156.59;5068575;28;20282;-83
2022/08/15 02:54:26;;;;;;;4.80;2.90;;;;;;;20.61;54.25;100166.00;5070238;28;20033;-83
2022/08/15 02:56:52;;;;;;;7.10;2.97;;;;;;;20.65;55.23;100173.13;5050770;28;20424;-84
2022/08/15 02:59:17;;;;;;;4.00;2.97;;;;;;;20.60;54.22;100157.06;5051831;28;20067;-84
2022/08/15 03:01:43;;;;;;;3.23;2.90;;;;;;;20.64;54.55;100163.38;5046516;28;20061;-83
2022/08/15 03:04:14;;;;;;;4.33;3.00;;;;;;;20.62;54.06;100157.50;5051815;28;20032;-83
2022/08/15 03:06:43;;;;;;;5.40;2.75;;;;;;;20.61;54.27;100157.84;5069786;28;20025;-83
2022/08/15 03:09:10;;;;;;;6.60;3.30;;;;;;;20.60;54.90;100159.78;5067137;28;20049;-84
2022/08/15 03:11:38;;;;;;;6.13;3.13;;;;;;;20.53;54.70;100157.63;5068492;28;20037;-84
2022/08/15 03:14:10;;;;;;;5.60;3.28;;;;;;;20.50;54.67;100152.88;5048076;28;20071;-84
2022/08/15 03:16:40;;;;;;;6.35;2.83;;;;;;;20.48;55.33;100151.59;5049989;28;20029;-84
2022/08/15 03:19:06;;;;;;;8.18;3.20;;;;;;;20.39;54.93;100159.88;5066468;28;20098;-84
2022/08/15 03:21:31;;;;;;;3.42;2.75;;;;;;;20.39;55.46;100168.03;5049482;28;20486;-83
2022/08/15 03:23:57;;;;;;;5.47;3.30;;;;;;;20.31;55.09;100167.03;5065922;28;20024;-85
2022/08/15 03:26:27;;;;;;;5.83;3.10;;;;;;;20.26;55.48;100156.41;5066995;28;20025;-85
2022/08/15 03:28:54;;;;;;;6.33;3.40;;;;;;;20.21;55.60;100160.13;5066694;28;20305;-85
2022/08/15 03:31:19;;;;;;;8.80;3.50;;;;;;;20.20;55.73;100157.75;5051350;28;20036;-85
2022/08/15 03:33:45;;;;;;;4.43;3.03;;;;;;;20.14;55.98;100157.19;5068272;28;20623;-85
2022/08/15 03:36:12;;;;;;;4.38;3.30;;;;;;;20.06;56.30;100156.16;5068637;28;20118;-85
2022/08/15 03:38:37;;;;;;;4.22;3.08;;;;;;;19.99;56.47;100153.19;5067709;28;20064;-85
2022/08/15 03:41:08;;;;;;;7.88;3.40;;;;;;;20.01;56.69;100155.56;5069092;28;20055;-85
2022/08/15 03:43:34;;;;;;;5.90;3.20;;;;;;;19.95;56.75;100155.00;5069466;28;20025;-85
2022/08/15 03:46:06;;;;;;;5.13;3.30;;;;;;;19.92;56.77;100159.19;5068539;28;20042;-85
2022/08/15 03:48:39;;;;;;;4.78;3.25;;;;;;;19.92;56.98;100153.75;5073594;28;20035;-85
2022/08/15 03:51:07;;;;;;;4.82;3.33;;;;;;;19.91;57.05;100163.03;5070619;28;20029;-85
2022/08/15 03:53:36;;;;;;;10.95;3.58;;;;;;;19.85;57.42;100172.50;5053816;28;20063;-85
2022/08/15 03:56:05;;;;;;;4.72;3.40;;;;;;;19.81;57.35;100171.59;5070529;28;20029;-85
2022/08/15 03:58:33;;;;;;;7.22;3.83;;;;;;;19.82;57.76;100162.28;5073870;28;20115;-85
2022/08/15 04:00:58;;;;;;;5.88;3.67;;;;;;;19.78;58.23;100167.63;5071373;28;20025;-84
2022/08/15 04:03:26;;;;;;;5.27;3.80;;;;;;;19.79;58.43;100168.44;5069238;28;20070;-85
2022/08/15 04:05:55;;;;;;;5.10;3.72;;;;;;;19.72;58.30;100160.81;5072429;28;20581;-85
2022/08/15 04:08:23;;;;;;;8.43;3.47;;;;;;;19.74;58.49;100160.47;5072403;28;20024;-85
2022/08/15 04:10:52;;;;;;;5.78;3.95;;;;;;;19.73;58.98;100156.97;5072390;28;20035;-84
2022/08/15 04:13:24;;;;;;;4.55;3.60;;;;;;;19.67;58.85;100161.81;5073175;28;20040;-85
2022/08/15 04:15:51;;;;;;;7.50;3.60;;;;;;;19.63;59.52;100152.75;5071627;28;20024;-84
2022/08/15 04:18:17;;;;;;;5.87;4.20;;;;;;;19.60;59.90;100160.78;5072747;28;20290;-84
2022/08/15 04:20:43;;;;;;;12.27;3.75;;;;;;;19.50;60.22;100156.56;5070582;28;20044;-84
2022/08/15 04:23:08;;;;;;;9.03;3.90;;;;;;;19.56;60.13;100168.00;5071923;28;20039;-85
2022/08/15 04:25:37;;;;;;;6.68;3.92;;;;;;;19.50;60.99;100170.16;5071770;28;20430;-84
2022/08/15 04:28:03;;;;;;;8.00;4.13;;;;;;;19.52;61.29;100176.84;5069517;28;20059;-85
2022/08/15 04:30:32;;;;;;;5.75;3.78;;;;;;;19.47;61.62;100168.91;5070208;28;20499;-85
2022/08/15 04:33:13;;;;;;;10.07;3.90;;;;;;;19.50;61.85;100165.53;5071700;28;20028;-83
2022/08/15 04:35:40;;;;;;;7.20;3.80;;;;;;;19.54;61.79;100176.50;5082261;28;20814;-84
2022/08/15 04:38:05;;;;;;;6.70;3.83;;;;;;;19.54;62.14;100183.88;5070387;28;20174;-84
2022/08/15 04:40:31;;;;;;;8.60;3.95;;;;;;;19.57;62.16;100177.75;5069037;28;20544;-83
2022/08/15 04:42:59;;;;;;;9.07;3.80;;;;;;;19.60;62.35;100180.59;5057451;28;20035;-83
2022/08/15 04:45:27;;;;;;;6.32;3.97;;;;;;;19.64;62.59;100180.72;5069744;28;20547;-83
2022/08/15 04:47:52;;;;;;;6.80;3.90;;;;;;;19.70;62.80;100178.59;5072015;28;20070;-83
2022/08/15 04:50:18;;;;;;;8.53;3.87;;;;;;;19.75;63.05;100167.50;5065298;28;20434;-83
2022/08/15 04:52:46;;;;;;;7.15;3.90;;;;;;;19.88;62.49;100181.97;5072177;28;20020;-83
2022/08/15 04:55:13;;;;;;;6.20;3.95;;;;;;;19.95;62.81;100177.56;5070678;28;20031;-83
2022/08/15 04:57:40;;;;;;;6.70;3.53;;;;;;;20.04;62.80;100185.59;5068810;28;20422;-84
2022/08/15 05:00:10;;;;;;;6.93;3.90;;;;;;;20.12;62.99;100192.84;5069981;28;20748;-84
2022/08/15 05:02:35;;;;;;;7.10;4.00;;;;;;;20.24;62.61;100199.47;5054984;28;20031;-83
2022/08/15 05:05:03;;;;;;;7.05;3.90;;;;;;;20.31;62.88;100205.13;5071047;28;20033;-84
2022/08/15 05:07:28;;;;;;;13.75;3.85;;;;;;;20.40;62.73;100197.66;5071401;28;20103;-82
2022/08/15 05:09:55;;;;;;;6.00;3.88;;;;;;;20.54;62.77;100207.41;5069925;28;20182;-82
2022/08/15 05:12:21;;;;;;;9.37;3.57;;;;;;;20.63;62.24;100194.47;5068361;28;20694;-82
2022/08/15 05:14:46;;;;;;;4.93;3.85;;;;;;;20.69;62.09;100195.03;5070446;28;20150;-82
2022/08/15 05:17:11;;;;;;;8.03;3.77;;;;;;;20.75;62.47;100190.16;5070849;28;20039;-84
2022/08/15 05:19:36;;;;;;;9.43;3.97;;;;;;;20.79;62.03;100191.09;5071718;28;20032;-84
2022/08/15 05:22:02;;;;;;;9.33;4.30;;;;;;;20.85;62.50;100200.59;5071299;28;20028;-85
2022/08/15 05:24:27;;;;;;;8.50;3.73;;;;;;;20.92;61.98;100195.34;5072447;28;20472;-83
2022/08/15 05:26:54;;;;;;;7.70;3.93;;;;;;;20.94;62.24;100209.44;5071716;28;20036;-85
2022/08/15 05:29:20;;;;;;;7.65;3.80;;;;;;;20.96;62.24;100196.25;5067689;28;21708;-85
2022/08/15 05:31:46;;;;;;;7.07;4.07;;;;;;;20.95;62.50;100200.13;5066047;28;20086;-85
2022/08/15 05:34:11;;;;;;;6.83;4.03;;;;;;;20.93;62.57;100191.50;5055874;28;20796;-84
2022/08/15 05:36:37;;;;;;;11.13;4.03;;;;;;;21.03;63.18;100212.03;5071137;28;20021;-84
2022/08/15 05:39:17;;;;;;;8.45;3.78;;;;;;;21.08;63.44;100213.69;5070101;28;20086;-84
2022/08/15 05:41:56;;;;;;;9.27;3.80;;;;;;;21.01;64.80;100215.06;5071735;28;20598;-85
2022/08/15 05:44:39;;;;;;;10.05;4.10;;;;;;;20.75;67.48;100217.38;5083340;28;20028;-84
2022/08/15 05:47:24;;;;;;;17.55;4.53;;;;;;;20.47;70.24;100224.28;5070323;28;20236;-84
2022/08/15 05:50:00;;;;;;;14.20;4.40;;;;;;;20.49;70.42;100222.03;5067658;28;20037;-84
2022/08/15 05:52:38;;;;;;;16.80;4.40;;;;;;;20.58;71.30;100221.91;5070441;28;20373;-84
2022/08/15 05:55:17;;;;;;;14.65;4.10;;;;;;;20.62;68.31;100219.28;5071721;28;20182;-84
2022/08/15 05:57:56;;;;;;;9.15;4.60;;;;;;;20.73;69.27;100229.38;5070937;28;20017;-84
2022/08/15 06:00:24;;;;;;;11.88;4.10;;;;;;;20.85;68.30;100222.34;5062500;28;20058;-85
2022/08/15 06:02:57;;;;;;;10.02;4.05;;;;;;;20.92;67.41;100227.22;5067840;28;20484;-84
2022/08/15 06:05:35;;;;;;;6.53;3.85;;;;;;;21.01;67.02;100231.41;5070394;28;20033;-84
2022/08/15 06:08:08;;;;;;;8.65;3.78;;;;;;;21.08;66.89;100224.59;5070317;28;20361;-85
2022/08/15 06:10:38;;;;;;;6.20;3.60;;;;;;;21.13;66.17;100232.53;5069682;28;20031;-84
2022/08/15 06:13:09;;;;;;;11.07;3.85;;;;;;;21.21;65.87;100233.53;5068499;28;20450;-85
2022/08/15 06:15:53;;;;;;;7.43;3.50;;;;;;;21.26;65.65;100241.47;5067090;28;20029;-85
2022/08/15 06:18:21;;;;;;;7.97;4.03;;;;;;;21.40;65.33;100233.72;5070526;28;20278;-84
2022/08/15 06:21:15;;;;;;;7.72;3.63;;;;;;;21.67;64.30;100238.75;5067639;28;20036;-84
2022/08/15 06:23:59;;;;;;;10.73;4.00;;;;;;;21.94;63.18;100231.69;5060048;28;20036;-85
2022/08/15 06:26:56;;;;;;;11.93;3.70;;;;;;;22.13;62.73;100225.53;5070561;28;20044;-84
2022/08/15 06:29:40;;;;;;;10.85;3.85;;;;;;;22.29;62.47;100230.19;5037195;28;20089;-84
2022/08/15 06:32:27;;;;;;;14.85;3.65;;;;;;;22.34;62.42;100229.94;5052185;28;20037;-82
2022/08/15 06:35:04;;;;;;;10.43;4.05;;;;;;;22.38;62.21;100239.78;5068499;28;20051;-84
2022/08/15 06:38:02;;;;;;;8.50;4.00;;;;;;;22.45;62.26;100233.75;5070137;28;20074;-83
2022/08/15 06:40:41;;;;;;;9.30;4.00;;;;;;;22.45;62.11;100228.31;5069948;28;20446;-85
2022/08/15 06:43:09;;;;;;;10.50;4.10;;;;;;;22.53;62.54;100235.50;5070089;28;20380;-86
2022/08/15 06:45:37;;;;;;;13.53;4.20;;;;;;;22.56;62.14;100228.53;5071482;28;20274;-87
2022/08/15 06:48:07;;;;;;;6.57;4.63;;;;;;;22.56;62.19;100238.66;5066586;28;20028;-84
2022/08/15 06:50:54;;;;;;;12.50;4.45;;;;;;;22.60;62.21;100245.00;5060781;28;20048;-84
2022/08/15 06:53:31;;;;;;;12.85;4.35;;;;;;;22.65;62.35;100258.38;5070082;28;20104;-85
2022/08/15 06:56:24;;;;;;;12.57;4.10;;;;;;;22.73;61.76;100251.94;5068520;28;20059;-85
2022/08/15 06:59:07;;;;;;;9.38;3.97;;;;;;;22.73;62.31;100248.44;5072984;28;20039;-85
2022/08/15 07:01:51;;;;;;;5.70;3.97;;;;;;;22.80;61.79;100248.59;5071046;28;20029;-83
2022/08/15 07:04:26;;;;;;;8.25;4.28;;;;;;;22.88;61.93;100244.06;5070157;28;20036;-84
2022/08/15 07:07:02;;;;;;;6.82;4.00;;;;;;;23.04;61.80;100230.38;5069967;28;20056;-84
2022/08/15 07:09:39;;;;;;;11.13;3.63;;;;;;;23.20;60.60;100233.84;5068190;28;20391;-84
2022/08/15 07:12:16;;;;;;;9.07;4.73;;;;;;;23.32;60.71;100241.16;5073616;28;20340;-86
2022/08/15 07:15:10;;;;;;;7.00;4.18;;;;;;;23.52;60.11;100249.34;5073148;28;20072;-86
2022/08/15 07:17:50;;;;;;;7.45;3.90;;;;;;;23.65;59.49;100248.03;5068696;28;20036;-89
2022/08/15 07:20:17;;;;;;;6.47;4.28;;;;;;;23.59;59.73;100242.09;5071288;28;20523;-88
2022/08/15 07:22:42;;;;;;;8.82;4.82;;;;;;;23.53;59.91;100238.06;5074462;28;20503;-89
2022/08/15 07:25:12;;;;;;;7.97;4.65;;;;;;;23.50;60.13;100241.50;5072833;28;20051;-88
2022/08/15 07:27:38;;;;;;;8.30;4.75;;;;;;;23.45;60.33;100236.34;5066646;28;20032;-86
2022/08/15 07:30:16;;;;;;;9.10;4.28;;;;;;;23.41;59.54;100230.78;5054468;28;20395;-89
2022/08/15 07:32:41;;;;;;;7.95;4.18;;;;;;;23.53;59.69;100240.00;5050207;28;20537;-85
2022/08/15 07:35:29;;;;;;;8.43;4.70;;;;;;;23.64;59.87;100241.00;5070850;28;20028;-88
2022/08/15 07:37:58;;;;;;;18.17;5.05;;;;;;;23.81;59.23;100236.22;5072900;28;20025;-88
2022/08/15 07:40:32;;;;;;;6.63;4.30;;;;;;;23.95;59.12;100241.94;5073626;28;20112;-87
2022/08/15 07:43:00;;;;;;;11.70;4.80;;;;;;;24.06;58.40;100239.44;5069110;28;20307;-88
2022/08/15 07:45:37;;;;;;;9.20;4.60;;;;;;;24.13;58.62;100233.28;5082516;28;20074;-87
2022/08/15 07:48:18;;;;;;;8.13;4.53;;;;;;;24.26;58.37;100245.66;5072912;28;20643;-87
2022/08/15 07:51:00;;;;;;;9.55;4.75;;;;;;;24.42;57.48;100239.25;5059043;28;20029;-88
2022/08/15 07:53:25;;;;;;;11.30;4.78;;;;;;;24.59;57.24;100246.94;5060326;28;20029;-87
2022/08/15 07:56:16;;;;;;;8.00;5.10;;;;;;;24.69;57.17;100248.28;5073027;28;20464;-88
2022/08/15 07:58:42;;;;;;;10.43;4.65;;;;;;;24.68;56.92;100251.38;5073188;28;20112;-88
2022/08/15 08:01:11;;;;;;;9.18;5.10;;;;;;;24.86;56.44;100248.94;5071630;28;20101;-87
2022/08/15 08:03:39;;;;;;;10.35;5.50;;;;;;;25.15;55.86;100254.78;5071130;28;20032;-88
2022/08/15 08:06:18;;;;;;;9.38;5.00;;;;;;;25.40;55.35;100249.63;5070956;28;20056;-88
2022/08/15 08:09:23;;;;;;;14.73;5.45;;;;;;;25.57;54.87;100256.50;5069328;28;20039;-88
2022/08/15 08:11:54;;;;;;;8.40;4.93;;;;;;;25.53;54.31;100261.97;5051058;28;20044;-87
2022/08/15 08:14:44;;;;;;;8.65;5.25;;;;;;;25.42;54.55;100266.53;5054276;28;20032;-88
2022/08/15 08:17:28;;;;;;;14.77;5.05;;;;;;;25.48;54.62;100265.03;5057621;28;20036;-87
2022/08/15 08:20:04;;;;;;;8.00;4.63;;;;;;;25.74;54.43;100266.13;5052285;28;20108;-88
2022/08/15 08:22:42;;;;;;;12.27;5.53;;;;;;;25.98;53.30;100264.78;5071354;28;20347;-87
2022/08/15 08:25:20;;;;;;;15.00;5.32;;;;;;;26.17;52.78;100264.97;5070520;28;20097;-88
2022/08/15 08:27:57;;;;;;;11.77;5.10;;;;;;;26.24;51.77;100265.06;5070784;28;20070;-87
2022/08/15 08:30:25;;;;;;;6.55;4.82;;;;;;;26.21;51.90;100266.59;5063656;28;20408;-87
2022/08/15 08:32:58;;;;;;;9.32;5.60;;;;;;;26.20;51.76;100272.47;5071132;28;20395;-87
2022/08/15 08:35:53;;;;;;;9.30;4.68;;;;;;;26.26;51.94;100268.22;5070652;28;20499;-87
2022/08/15 08:38:32;;;;;;;10.07;5.10;;;;;;;26.06;52.22;100264.84;5065805;28;20040;-86
2022/08/15 08:41:34;;;;;;;9.00;5.45;;;;;;;25.93;52.71;100264.34;5062348;28;20033;-86
2022/08/15 08:44:21;;;;;;;9.55;5.13;;;;;;;25.67;53.30;100269.56;5052384;28;20058;-85
2022/08/15 08:47:11;;;;;;;10.03;4.90;;;;;;;25.52;53.63;100273.28;5061645;28;20016;-85
2022/08/15 08:49:48;;;;;;;8.57;5.07;;;;;;;25.53;54.07;100275.69;5071420;28;20360;-84
2022/08/15 08:52:43;;;;;;;10.75;5.22;;;;;;;25.40;54.47;100277.84;5070405;28;20089;-84
2022/08/15 08:55:20;;;;;;;8.55;4.90;;;;;;;25.25;55.11;100273.34;5070129;28;20029;-83
2022/08/15 08:58:04;;;;;;;8.85;5.03;;;;;;;25.30;55.19;100264.78;5066458;28;20025;-83
2022/08/15 09:00:41;;;;;;;7.95;5.47;;;;;;;25.21;55.76;100276.03;5067607;28;20032;-83
2022/08/15 09:03:17;;;;;;;10.82;5.20;;;;;;;25.18;56.16;100274.03;5070141;28;20039;-83
2022/08/15 09:05:49;;;;;;;9.20;5.32;;;;;;;25.21;56.42;100269.75;5071904;28;20063;-83
2022/08/15 09:08:41;;;;;;;15.18;5.45;;;;;;;25.19;56.20;100281.09;5070047;28;20051;-84
2022/08/15 09:11:14;;;;;;;12.23;5.40;;;;;;;25.12;56.32;100274.72;5069878;28;20492;-83
2022/08/15 09:13:43;;;;;;;11.93;5.37;;;;;;;25.14;56.27;100275.94;5070020;28;20020;-84
2022/08/15 09:16:35;;;;;;;10.03;5.77;;;;;;;24.83;57.55;100285.28;5062486;28;20809;-83
2022/08/15 09:19:14;;;;;;;11.52;4.95;;;;;;;24.66;59.36;100276.41;5034811;28;20032;-83
2022/08/15 09:21:42;;;;;;;9.07;5.72;;;;;;;24.45;64.52;100287.81;5051469;28;20025;-83
2022/08/15 09:24:09;;;;;;;9.48;5.50;;;;;;;24.38;63.49;100284.94;5063825;28;20024;-83
2022/08/15 09:27:02;;;;;;;9.98;5.78;;;;;;;24.31;65.21;100289.13;5070963;28;20037;-83
2022/08/15 09:29:37;;;;;;;11.52;5.80;;;;;;;24.50;63.80;100293.75;5063503;28;20033;-85
2022/08/15 09:32:27;;;;;;;7.35;4.95;;;;;;;24.90;63.42;100290.88;5054126;28;20068;-84
2022/08/15 09:35:30;;;;;;;6.95;5.80;;;;;;;25.22;62.55;100285.03;5070891;28;20028;-84
2022/08/15 09:38:19;;;;;;;6.72;5.50;;;;;;;25.49;60.00;100293.22;5067936;28;20029;-83
2022/08/15 09:41:22;;;;;;;11.27;5.10;;;;;;;25.88;59.05;100292.13;5070598;28;20057;-84
2022/08/15 09:44:11;;;;;;;7.27;5.10;;;;;;;26.04;57.44;100289.94;5066766;28;20793;-85
2022/08/15 09:47:09;;;;;;;10.90;4.97;;;;;;;26.38;56.25;100291.84;5069939;28;20036;-85
2022/08/15 09:50:34;;;;;;;7.68;4.90;;;;;;;26.72;55.30;100280.72;5069069;28;20024;-85
2022/08/15 09:53:26;;;;;;;6.80;5.18;;;;;;;27.15;53.97;100289.25;5019363;28;20076;-85
2022/08/15 09:55:52;;;;;;;11.70;5.45;;;;;;;27.39;51.50;100286.22;5006590;28;20072;-85
2022/08/15 09:58:27;;;;;;;10.52;5.45;;;;;;;27.64;51.52;100298.13;5055246;28;20035;-84
2022/08/15 10:01:16;;;;;;;11.88;5.57;;;;;;;27.74;50.59;100287.56;5070156;28;20095;-85
2022/08/15 10:03:45;;;;;;;9.32;5.28;;;;;;;27.86;49.98;100292.69;5052863;28;20126;-84
2022/08/15 10:06:20;;;;;;;8.82;5.10;;;;;;;28.05;49.35;100288.00;5057910;28;20103;-85
2022/08/15 10:08:52;;;;;;;9.83;5.40;;;;;;;27.88;49.85;100290.34;5070285;28;20044;-85
2022/08/15 10:11:27;;;;;;;7.73;5.13;;;;;;;27.78;50.38;100280.09;5070403;28;20387;-84
2022/08/15 10:14:08;;;;;;;13.20;6.03;;;;;;;27.77;50.47;100295.03;5037312;28;20024;-82
2022/08/15 10:16:36;;;;;;;9.10;5.65;;;;;;;27.57;50.41;100292.59;5069132;28;20539;-82
2022/08/15 10:19:04;;;;;;;9.10;5.68;;;;;;;27.43;50.31;100290.56;5067958;28;20032;-83
2022/08/15 10:21:39;;;;;;;10.93;5.88;;;;;;;27.48;51.24;100294.94;5069358;28;20146;-83
2022/08/15 10:24:22;;;;;;;9.38;5.38;;;;;;;27.56;50.66;100288.28;5053980;28;20039;-82
2022/08/15 10:27:09;;;;;;;9.45;5.30;;;;;;;27.76;50.15;100290.69;5069581;28;20027;-82
2022/08/15 10:29:38;;;;;;;7.40;5.13;;;;;;;27.59;50.46;100290.25;5070216;28;20047;-82
2022/08/15 10:32:04;;;;;;;10.07;5.40;;;;;;;27.58;50.75;100299.69;5069622;28;20024;-82
2022/08/15 10:34:38;;;;;;;8.77;4.97;;;;;;;27.67;50.72;100299.31;5070207;28;20103;-82
2022/08/15 10:37:17;;;;;;;13.23;5.73;;;;;;;27.84;50.18;100300.56;5068112;28;20326;-82
2022/08/15 10:40:11;;;;;;;9.02;5.32;;;;;;;27.98;49.64;100304.50;5064847;28;20116;-82
2022/08/15 10:43:07;;;;;;;9.98;4.80;;;;;;;27.93;50.62;100308.44;5032681;28;20029;-82
2022/08/15 10:45:41;;;;;;;11.90;5.55;;;;;;;27.81;52.67;100304.06;5055441;28;20460;-83
2022/08/15 10:48:32;;;;;;;12.68;5.93;;;;;;;27.59;52.25;100300.47;5069743;28;20070;-82
2022/08/15 10:51:08;;;;;;;7.35;4.70;;;;;;;27.23;53.53;100301.06;5069127;28;20033;-82
2022/08/15 10:54:17;;;;;;;10.63;5.60;;;;;;;27.02;52.88;100302.53;5070313;28;20073;-83
2022/08/15 10:56:42;;;;;;;9.50;5.43;;;;;;;26.78;52.96;100300.38;5049157;28;20452;-81
2022/08/15 10:59:37;;;;;;;6.03;5.03;;;;;;;26.84;52.67;100307.16;5050014;28;20100;-82
2022/08/15 11:02:18;;;;;;;10.88;5.38;;;;;;;26.62;52.98;100306.94;5049282;28;20484;-82
2022/08/15 11:04:44;;;;;;;6.68;5.28;;;;;;;26.42;53.19;100301.69;5050426;28;20028;-82
2022/08/15 11:07:20;;;;;;;9.03;5.47;;;;;;;26.34;53.82;100305.53;5067642;28;20032;-82
2022/08/15 11:09:55;;;;;;;6.78;4.38;;;;;;;26.32;53.77;100307.09;5053854;28;20507;-82
2022/08/15 11:12:24;;;;;;;6.97;5.70;;;;;;;26.19;55.17;100306.56;5069161;28;20036;-82
2022/08/15 11:14:55;;;;;;;8.07;5.60;;;;;;;26.10;55.38;100299.41;5068333;28;20017;-82
2022/08/15 11:17:27;;;;;;;7.40;5.20;;;;;;;25.96;54.86;100299.25;5069261;28;20037;-82
2022/08/15 11:20:02;;;;;;;8.57;5.60;;;;;;;25.83;55.04;100302.25;5067684;28;20376;-82
2022/08/15 11:22:37;;;;;;;9.13;5.47;;;;;;;25.89;55.40;100312.91;5069221;28;20029;-82
2022/08/15 11:25:13;;;;;;;7.47;5.18;;;;;;;25.87;54.72;100307.00;5068775;28;20150;-82
2022/08/15 11:27:39;;;;;;;8.40;5.72;;;;;;;25.77;54.85;100303.75;5069847;28;20039;-83
2022/08/15 11:30:08;;;;;;;9.77;5.40;;;;;;;25.80;55.07;100304.97;5068439;28;20029;-83
2022/08/15 11:32:36;;;;;;;14.95;5.60;;;;;;;25.98;54.61;100308.72;5068463;28;20094;-83
2022/08/15 11:35:23;;;;;;;10.07;5.78;;;;;;;26.21;54.12;100316.00;5069389;28;20062;-83
2022/08/15 11:37:49;;;;;;;7.23;5.20;;;;;;;26.56;54.63;100309.28;5068990;28;20032;-83
2022/08/15 11:40:27;;;;;;;8.00;5.93;;;;;;;26.71;56.66;100312.91;5069243;28;20837;-83
2022/08/15 11:42:55;;;;;;;8.32;5.03;;;;;;;26.89;57.12;100317.75;5067210;28;20029;-82
2022/08/15 11:45:28;;;;;;;10.63;5.45;;;;;;;27.02;54.34;100310.00;5069062;28;20027;-83
2022/08/15 11:47:57;;;;;;;13.35;5.15;;;;;;;27.21;53.64;100314.41;5066860;28;20036;-83
2022/08/15 11:50:38;;;;;;;9.02;4.88;;;;;;;27.38;52.75;100323.16;5066606;28;20086;-83
2022/08/15 11:53:09;;;;;;;12.90;5.65;;;;;;;27.79;51.06;100320.19;5068838;28;20033;-83
2022/08/15 11:55:35;;;;;;;7.18;4.85;;;;;;;28.17;48.98;100320.69;5069222;28;20013;-83